sensor_id;sensor_type;location;lat;lon;timestamp;temperature;humidity
21167;DHT22;10741;52.272;9.580;2024-03-07T00:02:09;1.50;99.90
21167;DHT22;10741;52.272;9.580;2024-03-07T00:04:34;1.50;99.90
21167;DHT22;10741;52.272;9.580;2024-03-07T00:07:03;1.50;99.90
21167;DHT22;10741;52.272;9.580;2024-03-07T00:09:31;1.50;99.90
21167;DHT22;10741;52.272;9.580;2024-03-07T00:11:57;1.40;99.90
21167;DHT22;10741;52.272;9.580;2024-03-07T00:14:23;1.40;99.90
21167;DHT22;10741;52.272;9.580;2024-03-07T00:16:56;1.40;99.90
21167;DHT22;10741;52.272;9.580;2024-03-07T00:19:21;1.30;99.90
21167;DHT22;10741;52.272;9.580;2024-03-07T00:21:50;1.40;99.90
21167;DHT22;10741;52.272;9.580;2024-03-07T00:24:15;1.40;99.90
21167;DHT22;10741;52.272;9.580;2024-03-07T00:26:41;1.30;99.90
21167;DHT22;10741;52.272;9.580;2024-03-07T00:29:07;1.30;99.90
21167;DHT22;10741;52.272;9.580;2024-03-07T00:31:33;1.20;99.90
21167;DHT22;10741;52.272;9.580;2024-03-07T00:33:59;1.20;99.90
21167;DHT22;10741;52.272;9.580;2024-03-07T00:36:25;1.20;99.90
21167;DHT22;10741;52.272;9.580;2024-03-07T00:38:51;1.10;99.90
21167;DHT22;10741;52.272;9.580;2024-03-07T00:41:17;1.00;99.90
21167;DHT22;10741;52.272;9.580;2024-03-07T00:43:43;1.10;99.90
21167;DHT22;10741;52.272;9.580;2024-03-07T00:46:08;1.00;99.90
21167;DHT22;10741;52.272;9.580;2024-03-07T00:48:37;1.00;99.90
21167;DHT22;10741;52.272;9.580;2024-03-07T00:51:03;1.00;99.90
21167;DHT22;10741;52.272;9.580;2024-03-07T00:53:30;1.00;99.90
21167;DHT22;10741;52.272;9.580;2024-03-07T00:55:56;1.00;99.90
21167;DHT22;10741;52.272;9.580;2024-03-07T00:58:21;0.90;99.90
21167;DHT22;10741;52.272;9.580;2024-03-07T01:00:47;0.90;99.90
21167;DHT22;10741;52.272;9.580;2024-03-07T01:03:13;0.80;99.90
21167;DHT22;10741;52.272;9.580;2024-03-07T01:05:42;0.80;99.90
21167;DHT22;10741;52.272;9.580;2024-03-07T01:08:08;0.80;99.90
21167;DHT22;10741;52.272;9.580;2024-03-07T01:10:33;0.70;99.90
21167;DHT22;10741;52.272;9.580;2024-03-07T01:12:59;0.70;99.90
21167;DHT22;10741;52.272;9.580;2024-03-07T01:15:31;0.70;99.90
21167;DHT22;10741;52.272;9.580;2024-03-07T01:17:57;0.70;99.90
21167;DHT22;10741;52.272;9.580;2024-03-07T01:20:23;0.60;99.90
21167;DHT22;10741;52.272;9.580;2024-03-07T01:22:53;0.60;99.90
21167;DHT22;10741;52.272;9.580;2024-03-07T01:25:19;0.60;99.90
21167;DHT22;10741;52.272;9.580;2024-03-07T01:27:44;0.60;99.90
21167;DHT22;10741;52.272;9.580;2024-03-07T01:30:11;0.60;99.90
21167;DHT22;10741;52.272;9.580;2024-03-07T01:32:36;0.50;99.90
21167;DHT22;10741;52.272;9.580;2024-03-07T01:35:02;0.50;99.90
21167;DHT22;10741;52.272;9.580;2024-03-07T01:37:28;0.50;99.90
21167;DHT22;10741;52.272;9.580;2024-03-07T01:39:54;0.40;99.90
21167;DHT22;10741;52.272;9.580;2024-03-07T01:42:20;0.40;99.90
21167;DHT22;10741;52.272;9.580;2024-03-07T01:44:46;0.40;99.90
21167;DHT22;10741;52.272;9.580;2024-03-07T01:47:12;0.40;99.90
21167;DHT22;10741;52.272;9.580;2024-03-07T01:49:38;0.40;99.90
21167;DHT22;10741;52.272;9.580;2024-03-07T01:52:04;0.40;99.90
21167;DHT22;10741;52.272;9.580;2024-03-07T01:54:31;0.30;99.90
21167;DHT22;10741;52.272;9.580;2024-03-07T01:56:57;0.30;99.90
21167;DHT22;10741;52.272;9.580;2024-03-07T01:59:24;0.30;99.90
21167;DHT22;10741;52.272;9.580;2024-03-07T02:01:50;0.30;99.90
21167;DHT22;10741;52.272;9.580;2024-03-07T02:04:16;0.30;99.90
21167;DHT22;10741;52.272;9.580;2024-03-07T02:06:42;0.30;99.90
21167;DHT22;10741;52.272;9.580;2024-03-07T02:09:08;0.30;99.90
21167;DHT22;10741;52.272;9.580;2024-03-07T02:11:34;0.30;99.90
21167;DHT22;10741;52.272;9.580;2024-03-07T02:13:59;0.30;99.90
21167;DHT22;10741;52.272;9.580;2024-03-07T02:16:25;0.30;99.90
21167;DHT22;10741;52.272;9.580;2024-03-07T02:18:51;0.30;99.90
21167;DHT22;10741;52.272;9.580;2024-03-07T02:21:16;0.30;99.90
21167;DHT22;10741;52.272;9.580;2024-03-07T02:23:42;0.30;99.90
21167;DHT22;10741;52.272;9.580;2024-03-07T02:26:09;0.40;99.90
21167;DHT22;10741;52.272;9.580;2024-03-07T02:28:35;0.40;99.90
21167;DHT22;10741;52.272;9.580;2024-03-07T02:31:01;0.40;99.90
21167;DHT22;10741;52.272;9.580;2024-03-07T02:33:26;0.30;99.90
21167;DHT22;10741;52.272;9.580;2024-03-07T02:35:52;0.30;99.90
21167;DHT22;10741;52.272;9.580;2024-03-07T02:38:19;0.20;99.90
21167;DHT22;10741;52.272;9.580;2024-03-07T02:40:45;0.20;99.90
21167;DHT22;10741;52.272;9.580;2024-03-07T02:43:12;0.10;99.90
21167;DHT22;10741;52.272;9.580;2024-03-07T02:45:37;0.10;99.90
21167;DHT22;10741;52.272;9.580;2024-03-07T02:48:04;0.10;99.90
21167;DHT22;10741;52.272;9.580;2024-03-07T02:50:38;0.10;99.90
21167;DHT22;10741;52.272;9.580;2024-03-07T02:53:04;0.10;99.90
21167;DHT22;10741;52.272;9.580;2024-03-07T02:55:31;0.10;99.90
21167;DHT22;10741;52.272;9.580;2024-03-07T02:57:56;0.10;99.90
21167;DHT22;10741;52.272;9.580;2024-03-07T03:00:25;0.10;99.90
21167;DHT22;10741;52.272;9.580;2024-03-07T03:02:56;0.10;99.90
21167;DHT22;10741;52.272;9.580;2024-03-07T03:05:22;0.00;99.90
21167;DHT22;10741;52.272;9.580;2024-03-07T03:07:48;0.00;99.90
21167;DHT22;10741;52.272;9.580;2024-03-07T03:10:24;0.00;99.90
21167;DHT22;10741;52.272;9.580;2024-03-07T03:12:57;0.00;99.90
21167;DHT22;10741;52.272;9.580;2024-03-07T03:15:24;-0.10;99.90
21167;DHT22;10741;52.272;9.580;2024-03-07T03:17:50;-0.10;99.90
21167;DHT22;10741;52.272;9.580;2024-03-07T03:20:17;0.00;99.90
21167;DHT22;10741;52.272;9.580;2024-03-07T03:22:59;0.00;99.90
21167;DHT22;10741;52.272;9.580;2024-03-07T03:25:25;0.00;99.90
21167;DHT22;10741;52.272;9.580;2024-03-07T03:27:51;0.10;99.90
21167;DHT22;10741;52.272;9.580;2024-03-07T03:30:17;0.00;99.90
21167;DHT22;10741;52.272;9.580;2024-03-07T03:32:47;0.00;99.90
21167;DHT22;10741;52.272;9.580;2024-03-07T03:35:16;0.00;99.90
21167;DHT22;10741;52.272;9.580;2024-03-07T03:37:45;0.00;99.90
21167;DHT22;10741;52.272;9.580;2024-03-07T03:40:11;0.00;99.90
21167;DHT22;10741;52.272;9.580;2024-03-07T03:42:41;0.00;99.90
21167;DHT22;10741;52.272;9.580;2024-03-07T03:45:08;0.00;99.90
21167;DHT22;10741;52.272;9.580;2024-03-07T03:47:35;0.00;99.90
21167;DHT22;10741;52.272;9.580;2024-03-07T03:50:05;0.00;99.90
21167;DHT22;10741;52.272;9.580;2024-03-07T03:52:31;0.00;99.90
21167;DHT22;10741;52.272;9.580;2024-03-07T03:55:00;0.00;99.90
21167;DHT22;10741;52.272;9.580;2024-03-07T03:57:28;0.00;99.90
21167;DHT22;10741;52.272;9.580;2024-03-07T03:59:54;0.00;99.90
21167;DHT22;10741;52.272;9.580;2024-03-07T04:02:20;-0.10;99.90
21167;DHT22;10741;52.272;9.580;2024-03-07T04:04:50;-0.20;99.90
21167;DHT22;10741;52.272;9.580;2024-03-07T04:07:17;-0.20;99.90
21167;DHT22;10741;52.272;9.580;2024-03-07T04:09:43;-0.20;99.90
21167;DHT22;10741;52.272;9.580;2024-03-07T04:12:10;-0.20;99.90
21167;DHT22;10741;52.272;9.580;2024-03-07T04:14:45;-0.20;99.90
21167;DHT22;10741;52.272;9.580;2024-03-07T04:17:11;-0.20;99.90
21167;DHT22;10741;52.272;9.580;2024-03-07T04:19:42;-0.20;99.90
21167;DHT22;10741;52.272;9.580;2024-03-07T04:22:09;-0.20;99.90
21167;DHT22;10741;52.272;9.580;2024-03-07T04:24:35;-0.10;99.90
21167;DHT22;10741;52.272;9.580;2024-03-07T04:27:02;0.00;99.90
21167;DHT22;10741;52.272;9.580;2024-03-07T04:29:31;0.10;99.90
21167;DHT22;10741;52.272;9.580;2024-03-07T04:31:58;0.20;99.90
21167;DHT22;10741;52.272;9.580;2024-03-07T04:34:23;0.40;99.90
21167;DHT22;10741;52.272;9.580;2024-03-07T04:36:49;0.50;99.90
21167;DHT22;10741;52.272;9.580;2024-03-07T04:39:15;0.60;99.90
21167;DHT22;10741;52.272;9.580;2024-03-07T04:42:02;0.70;99.90
21167;DHT22;10741;52.272;9.580;2024-03-07T04:44:29;0.80;99.90
21167;DHT22;10741;52.272;9.580;2024-03-07T04:46:55;0.90;99.90
21167;DHT22;10741;52.272;9.580;2024-03-07T04:49:27;0.90;99.90
21167;DHT22;10741;52.272;9.580;2024-03-07T04:51:57;1.00;99.90
21167;DHT22;10741;52.272;9.580;2024-03-07T04:54:24;1.10;99.90
21167;DHT22;10741;52.272;9.580;2024-03-07T04:56:51;1.10;99.90
21167;DHT22;10741;52.272;9.580;2024-03-07T04:59:18;1.10;99.90
21167;DHT22;10741;52.272;9.580;2024-03-07T05:01:44;1.20;99.90
21167;DHT22;10741;52.272;9.580;2024-03-07T05:04:12;1.20;99.90
21167;DHT22;10741;52.272;9.580;2024-03-07T05:06:37;1.30;99.90
21167;DHT22;10741;52.272;9.580;2024-03-07T05:09:04;1.30;99.90
21167;DHT22;10741;52.272;9.580;2024-03-07T05:11:30;1.40;99.90
21167;DHT22;10741;52.272;9.580;2024-03-07T05:13:57;1.50;99.90
21167;DHT22;10741;52.272;9.580;2024-03-07T05:16:30;1.50;99.90
21167;DHT22;10741;52.272;9.580;2024-03-07T05:18:57;1.50;99.90
21167;DHT22;10741;52.272;9.580;2024-03-07T05:21:26;1.60;99.90
21167;DHT22;10741;52.272;9.580;2024-03-07T05:24:00;1.60;99.90
21167;DHT22;10741;52.272;9.580;2024-03-07T05:26:26;1.60;99.90
21167;DHT22;10741;52.272;9.580;2024-03-07T05:28:53;1.60;99.90
21167;DHT22;10741;52.272;9.580;2024-03-07T05:31:21;1.70;99.90
21167;DHT22;10741;52.272;9.580;2024-03-07T05:33:49;1.70;99.90
21167;DHT22;10741;52.272;9.580;2024-03-07T05:36:15;1.70;99.90
21167;DHT22;10741;52.272;9.580;2024-03-07T05:38:44;1.70;99.90
21167;DHT22;10741;52.272;9.580;2024-03-07T05:41:13;1.70;99.90
21167;DHT22;10741;52.272;9.580;2024-03-07T05:43:39;1.70;99.90
21167;DHT22;10741;52.272;9.580;2024-03-07T05:46:06;1.80;99.90
21167;DHT22;10741;52.272;9.580;2024-03-07T05:48:35;1.70;99.90
21167;DHT22;10741;52.272;9.580;2024-03-07T05:51:01;1.80;99.90
21167;DHT22;10741;52.272;9.580;2024-03-07T05:53:26;1.80;99.90
21167;DHT22;10741;52.272;9.580;2024-03-07T05:55:52;1.80;99.90
21167;DHT22;10741;52.272;9.580;2024-03-07T05:58:18;1.80;99.90
21167;DHT22;10741;52.272;9.580;2024-03-07T06:00:45;1.80;99.90
21167;DHT22;10741;52.272;9.580;2024-03-07T06:03:20;1.80;99.90
21167;DHT22;10741;52.272;9.580;2024-03-07T06:05:46;1.80;99.90
21167;DHT22;10741;52.272;9.580;2024-03-07T06:08:18;1.90;99.90
21167;DHT22;10741;52.272;9.580;2024-03-07T06:10:44;1.90;99.90
21167;DHT22;10741;52.272;9.580;2024-03-07T06:13:14;1.90;99.90
21167;DHT22;10741;52.272;9.580;2024-03-07T06:15:43;1.90;99.90
21167;DHT22;10741;52.272;9.580;2024-03-07T06:18:09;1.90;99.90
21167;DHT22;10741;52.272;9.580;2024-03-07T06:20:42;1.90;99.90
21167;DHT22;10741;52.272;9.580;2024-03-07T06:23:08;1.90;99.90
21167;DHT22;10741;52.272;9.580;2024-03-07T06:25:37;1.90;99.90
21167;DHT22;10741;52.272;9.580;2024-03-07T06:28:11;1.90;99.90
21167;DHT22;10741;52.272;9.580;2024-03-07T06:30:46;1.90;99.90
21167;DHT22;10741;52.272;9.580;2024-03-07T06:33:13;1.90;99.90
21167;DHT22;10741;52.272;9.580;2024-03-07T06:35:39;2.00;99.90
21167;DHT22;10741;52.272;9.580;2024-03-07T06:38:11;2.00;99.90
21167;DHT22;10741;52.272;9.580;2024-03-07T06:40:38;2.00;99.90
21167;DHT22;10741;52.272;9.580;2024-03-07T06:43:06;2.00;99.90
21167;DHT22;10741;52.272;9.580;2024-03-07T06:45:33;2.10;99.90
21167;DHT22;10741;52.272;9.580;2024-03-07T06:47:59;2.10;99.90
21167;DHT22;10741;52.272;9.580;2024-03-07T06:50:25;2.10;99.90
21167;DHT22;10741;52.272;9.580;2024-03-07T06:52:50;2.10;99.90
21167;DHT22;10741;52.272;9.580;2024-03-07T06:55:17;2.10;99.90
21167;DHT22;10741;52.272;9.580;2024-03-07T06:57:43;2.20;99.90
21167;DHT22;10741;52.272;9.580;2024-03-07T07:00:10;2.20;99.90
21167;DHT22;10741;52.272;9.580;2024-03-07T07:02:40;2.20;99.90
21167;DHT22;10741;52.272;9.580;2024-03-07T07:05:07;2.30;99.90
21167;DHT22;10741;52.272;9.580;2024-03-07T07:07:39;2.30;99.90
21167;DHT22;10741;52.272;9.580;2024-03-07T07:10:08;2.30;99.90
21167;DHT22;10741;52.272;9.580;2024-03-07T07:12:38;2.30;99.90
21167;DHT22;10741;52.272;9.580;2024-03-07T07:15:04;2.40;99.90
21167;DHT22;10741;52.272;9.580;2024-03-07T07:17:30;2.30;99.90
21167;DHT22;10741;52.272;9.580;2024-03-07T07:19:57;2.40;99.90
21167;DHT22;10741;52.272;9.580;2024-03-07T07:22:23;2.40;99.90
21167;DHT22;10741;52.272;9.580;2024-03-07T07:24:48;2.50;99.90
21167;DHT22;10741;52.272;9.580;2024-03-07T07:27:15;2.50;99.90
21167;DHT22;10741;52.272;9.580;2024-03-07T07:29:41;2.50;99.90
21167;DHT22;10741;52.272;9.580;2024-03-07T07:32:07;2.50;99.90
21167;DHT22;10741;52.272;9.580;2024-03-07T07:34:33;2.60;99.90
21167;DHT22;10741;52.272;9.580;2024-03-07T07:36:59;2.60;99.90
21167;DHT22;10741;52.272;9.580;2024-03-07T07:39:25;2.70;99.90
21167;DHT22;10741;52.272;9.580;2024-03-07T07:41:50;2.70;99.90
21167;DHT22;10741;52.272;9.580;2024-03-07T07:44:21;2.70;99.90
21167;DHT22;10741;52.272;9.580;2024-03-07T07:46:48;2.80;99.90
21167;DHT22;10741;52.272;9.580;2024-03-07T07:49:15;2.70;99.90
21167;DHT22;10741;52.272;9.580;2024-03-07T07:51:43;2.80;99.90
21167;DHT22;10741;52.272;9.580;2024-03-07T07:54:08;2.90;99.90
21167;DHT22;10741;52.272;9.580;2024-03-07T07:56:37;2.90;99.90
21167;DHT22;10741;52.272;9.580;2024-03-07T07:59:02;2.90;99.90
21167;DHT22;10741;52.272;9.580;2024-03-07T08:01:33;2.90;99.90
21167;DHT22;10741;52.272;9.580;2024-03-07T08:03:59;3.00;99.90
21167;DHT22;10741;52.272;9.580;2024-03-07T08:06:25;3.00;99.90
21167;DHT22;10741;52.272;9.580;2024-03-07T08:08:50;3.00;99.90
21167;DHT22;10741;52.272;9.580;2024-03-07T08:11:17;3.10;99.90
21167;DHT22;10741;52.272;9.580;2024-03-07T08:13:42;3.10;99.90
21167;DHT22;10741;52.272;9.580;2024-03-07T08:16:10;3.20;99.90
21167;DHT22;10741;52.272;9.580;2024-03-07T08:18:36;3.20;99.90
21167;DHT22;10741;52.272;9.580;2024-03-07T08:21:02;3.30;99.90
21167;DHT22;10741;52.272;9.580;2024-03-07T08:23:27;3.30;99.90
21167;DHT22;10741;52.272;9.580;2024-03-07T08:25:55;3.30;99.90
21167;DHT22;10741;52.272;9.580;2024-03-07T08:28:20;3.30;99.90
21167;DHT22;10741;52.272;9.580;2024-03-07T08:30:46;3.40;99.90
21167;DHT22;10741;52.272;9.580;2024-03-07T08:33:11;3.40;99.90
21167;DHT22;10741;52.272;9.580;2024-03-07T08:35:39;3.40;99.90
21167;DHT22;10741;52.272;9.580;2024-03-07T08:38:05;3.40;99.90
21167;DHT22;10741;52.272;9.580;2024-03-07T08:40:31;3.40;99.90
21167;DHT22;10741;52.272;9.580;2024-03-07T08:42:58;3.50;99.90
21167;DHT22;10741;52.272;9.580;2024-03-07T08:45:25;3.60;99.90
21167;DHT22;10741;52.272;9.580;2024-03-07T08:47:52;3.60;99.90
21167;DHT22;10741;52.272;9.580;2024-03-07T08:50:19;3.60;99.90
21167;DHT22;10741;52.272;9.580;2024-03-07T08:52:46;3.70;99.90
21167;DHT22;10741;52.272;9.580;2024-03-07T08:55:14;3.70;99.90
21167;DHT22;10741;52.272;9.580;2024-03-07T08:57:41;3.80;99.90
21167;DHT22;10741;52.272;9.580;2024-03-07T09:00:08;3.80;99.90
21167;DHT22;10741;52.272;9.580;2024-03-07T09:02:38;3.80;99.90
21167;DHT22;10741;52.272;9.580;2024-03-07T09:05:05;3.80;99.90
21167;DHT22;10741;52.272;9.580;2024-03-07T09:07:31;3.80;99.90
21167;DHT22;10741;52.272;9.580;2024-03-07T09:09:57;3.80;99.90
21167;DHT22;10741;52.272;9.580;2024-03-07T09:12:23;3.90;99.90
21167;DHT22;10741;52.272;9.580;2024-03-07T09:14:51;3.90;99.90
21167;DHT22;10741;52.272;9.580;2024-03-07T09:17:17;4.00;99.90
21167;DHT22;10741;52.272;9.580;2024-03-07T09:19:45;4.00;99.90
21167;DHT22;10741;52.272;9.580;2024-03-07T09:22:11;4.00;99.90
21167;DHT22;10741;52.272;9.580;2024-03-07T09:24:36;4.10;99.90
21167;DHT22;10741;52.272;9.580;2024-03-07T09:27:03;4.20;99.90
21167;DHT22;10741;52.272;9.580;2024-03-07T09:29:30;4.30;99.90
21167;DHT22;10741;52.272;9.580;2024-03-07T09:31:56;4.30;99.90
21167;DHT22;10741;52.272;9.580;2024-03-07T09:34:23;4.40;99.90
21167;DHT22;10741;52.272;9.580;2024-03-07T09:36:49;4.40;99.90
21167;DHT22;10741;52.272;9.580;2024-03-07T09:39:15;4.50;99.90
21167;DHT22;10741;52.272;9.580;2024-03-07T09:41:42;4.60;99.90
21167;DHT22;10741;52.272;9.580;2024-03-07T09:44:18;4.60;99.90
21167;DHT22;10741;52.272;9.580;2024-03-07T09:46:54;4.70;99.90
21167;DHT22;10741;52.272;9.580;2024-03-07T09:49:20;4.70;99.90
21167;DHT22;10741;52.272;9.580;2024-03-07T09:51:47;4.70;99.90
21167;DHT22;10741;52.272;9.580;2024-03-07T09:54:14;4.70;99.90
21167;DHT22;10741;52.272;9.580;2024-03-07T09:56:41;4.80;99.90
21167;DHT22;10741;52.272;9.580;2024-03-07T09:59:11;4.70;99.90
21167;DHT22;10741;52.272;9.580;2024-03-07T10:01:37;4.70;99.90
21167;DHT22;10741;52.272;9.580;2024-03-07T10:04:05;4.80;99.90
21167;DHT22;10741;52.272;9.580;2024-03-07T10:06:46;5.00;99.90
21167;DHT22;10741;52.272;9.580;2024-03-07T10:09:13;5.10;99.90
21167;DHT22;10741;52.272;9.580;2024-03-07T10:11:43;5.20;99.90
21167;DHT22;10741;52.272;9.580;2024-03-07T10:14:09;5.20;99.90
21167;DHT22;10741;52.272;9.580;2024-03-07T10:16:35;5.10;99.90
21167;DHT22;10741;52.272;9.580;2024-03-07T10:19:04;5.10;99.90
21167;DHT22;10741;52.272;9.580;2024-03-07T10:21:30;5.10;99.90
21167;DHT22;10741;52.272;9.580;2024-03-07T10:24:08;5.10;99.90
21167;DHT22;10741;52.272;9.580;2024-03-07T10:26:37;5.10;99.90
21167;DHT22;10741;52.272;9.580;2024-03-07T10:29:07;5.20;99.90
21167;DHT22;10741;52.272;9.580;2024-03-07T10:31:35;5.20;99.90
21167;DHT22;10741;52.272;9.580;2024-03-07T10:34:04;5.30;99.90
21167;DHT22;10741;52.272;9.580;2024-03-07T10:36:31;5.20;99.90
21167;DHT22;10741;52.272;9.580;2024-03-07T10:39:00;5.20;99.90
21167;DHT22;10741;52.272;9.580;2024-03-07T10:41:28;5.30;99.90
21167;DHT22;10741;52.272;9.580;2024-03-07T10:43:57;5.40;99.90
21167;DHT22;10741;52.272;9.580;2024-03-07T10:46:27;5.50;99.90
21167;DHT22;10741;52.272;9.580;2024-03-07T10:48:59;6.20;99.90
21167;DHT22;10741;52.272;9.580;2024-03-07T10:51:40;5.80;99.90
21167;DHT22;10741;52.272;9.580;2024-03-07T10:54:36;5.80;99.90
21167;DHT22;10741;52.272;9.580;2024-03-07T10:57:34;6.00;99.90
21167;DHT22;10741;52.272;9.580;2024-03-07T11:00:04;6.10;99.90
21167;DHT22;10741;52.272;9.580;2024-03-07T11:02:49;6.20;99.90
21167;DHT22;10741;52.272;9.580;2024-03-07T11:05:19;6.40;99.90
21167;DHT22;10741;52.272;9.580;2024-03-07T11:07:45;6.50;99.90
21167;DHT22;10741;52.272;9.580;2024-03-07T11:10:12;6.70;99.90
21167;DHT22;10741;52.272;9.580;2024-03-07T11:12:39;7.00;99.90
21167;DHT22;10741;52.272;9.580;2024-03-07T11:15:08;7.10;99.90
21167;DHT22;10741;52.272;9.580;2024-03-07T11:17:44;7.20;99.90
21167;DHT22;10741;52.272;9.580;2024-03-07T11:20:25;7.30;99.90
21167;DHT22;10741;52.272;9.580;2024-03-07T11:22:52;7.70;99.90
21167;DHT22;10741;52.272;9.580;2024-03-07T11:25:22;8.10;99.90
21167;DHT22;10741;52.272;9.580;2024-03-07T11:27:54;8.20;99.90
21167;DHT22;10741;52.272;9.580;2024-03-07T11:30:21;8.10;99.90
21167;DHT22;10741;52.272;9.580;2024-03-07T11:32:47;7.90;99.90
21167;DHT22;10741;52.272;9.580;2024-03-07T11:35:16;7.80;99.90
21167;DHT22;10741;52.272;9.580;2024-03-07T11:37:44;7.60;99.90
21167;DHT22;10741;52.272;9.580;2024-03-07T11:42:50;7.70;99.90
21167;DHT22;10741;52.272;9.580;2024-03-07T11:45:18;8.20;99.90
21167;DHT22;10741;52.272;9.580;2024-03-07T11:47:57;8.30;99.90
21167;DHT22;10741;52.272;9.580;2024-03-07T11:50:39;8.40;99.90
21167;DHT22;10741;52.272;9.580;2024-03-07T11:53:06;8.40;99.90
21167;DHT22;10741;52.272;9.580;2024-03-07T11:55:36;8.20;99.90
21167;DHT22;10741;52.272;9.580;2024-03-07T11:58:15;8.00;99.90
21167;DHT22;10741;52.272;9.580;2024-03-07T12:00:48;8.00;99.90
21167;DHT22;10741;52.272;9.580;2024-03-07T12:03:15;8.10;99.90
21167;DHT22;10741;52.272;9.580;2024-03-07T12:05:50;8.60;99.90
21167;DHT22;10741;52.272;9.580;2024-03-07T12:08:20;9.00;99.90
21167;DHT22;10741;52.272;9.580;2024-03-07T12:10:49;9.30;99.90
21167;DHT22;10741;52.272;9.580;2024-03-07T12:13:19;9.30;99.90
21167;DHT22;10741;52.272;9.580;2024-03-07T12:15:45;9.20;99.90
21167;DHT22;10741;52.272;9.580;2024-03-07T12:18:11;9.60;99.90
21167;DHT22;10741;52.272;9.580;2024-03-07T12:20:43;10.30;99.90
21167;DHT22;10741;52.272;9.580;2024-03-07T12:23:15;10.40;99.90
21167;DHT22;10741;52.272;9.580;2024-03-07T12:25:45;10.10;99.90
21167;DHT22;10741;52.272;9.580;2024-03-07T12:28:14;10.00;99.90
21167;DHT22;10741;52.272;9.580;2024-03-07T12:33:12;9.40;99.90
21167;DHT22;10741;52.272;9.580;2024-03-07T12:35:45;9.20;99.90
21167;DHT22;10741;52.272;9.580;2024-03-07T12:38:11;9.10;99.90
21167;DHT22;10741;52.272;9.580;2024-03-07T12:40:40;9.20;99.90
21167;DHT22;10741;52.272;9.580;2024-03-07T12:43:17;9.50;99.90
21167;DHT22;10741;52.272;9.580;2024-03-07T12:45:45;10.50;99.90
21167;DHT22;10741;52.272;9.580;2024-03-07T12:48:11;10.90;99.90
21167;DHT22;10741;52.272;9.580;2024-03-07T12:50:40;10.30;99.90
21167;DHT22;10741;52.272;9.580;2024-03-07T12:53:06;9.50;99.90
21167;DHT22;10741;52.272;9.580;2024-03-07T12:55:39;9.30;99.90
21167;DHT22;10741;52.272;9.580;2024-03-07T12:58:11;9.20;99.90
21167;DHT22;10741;52.272;9.580;2024-03-07T13:00:39;9.10;99.90
21167;DHT22;10741;52.272;9.580;2024-03-07T13:03:07;9.10;99.90
21167;DHT22;10741;52.272;9.580;2024-03-07T13:05:38;9.40;99.90
21167;DHT22;10741;52.272;9.580;2024-03-07T13:08:11;9.90;99.90
21167;DHT22;10741;52.272;9.580;2024-03-07T13:10:43;9.90;99.90
21167;DHT22;10741;52.272;9.580;2024-03-07T13:13:09;10.70;99.90
21167;DHT22;10741;52.272;9.580;2024-03-07T13:15:37;11.30;99.90
21167;DHT22;10741;52.272;9.580;2024-03-07T13:18:04;10.40;99.90
21167;DHT22;10741;52.272;9.580;2024-03-07T13:20:30;10.20;99.90
21167;DHT22;10741;52.272;9.580;2024-03-07T13:22:56;10.00;99.90
21167;DHT22;10741;52.272;9.580;2024-03-07T13:25:24;9.60;99.90
21167;DHT22;10741;52.272;9.580;2024-03-07T13:27:57;9.30;99.90
21167;DHT22;10741;52.272;9.580;2024-03-07T13:30:26;9.00;99.90
21167;DHT22;10741;52.272;9.580;2024-03-07T13:32:58;8.70;99.90
21167;DHT22;10741;52.272;9.580;2024-03-07T13:35:25;8.50;99.90
21167;DHT22;10741;52.272;9.580;2024-03-07T13:37:52;8.40;99.90
21167;DHT22;10741;52.272;9.580;2024-03-07T13:40:25;8.30;99.90
21167;DHT22;10741;52.272;9.580;2024-03-07T13:43:01;8.20;99.90
21167;DHT22;10741;52.272;9.580;2024-03-07T13:45:29;8.20;99.90
21167;DHT22;10741;52.272;9.580;2024-03-07T13:47:57;8.30;99.90
21167;DHT22;10741;52.272;9.580;2024-03-07T13:50:25;8.40;99.90
21167;DHT22;10741;52.272;9.580;2024-03-07T13:52:54;8.40;99.90
21167;DHT22;10741;52.272;9.580;2024-03-07T13:59:07;8.40;99.90
21167;DHT22;10741;52.272;9.580;2024-03-07T14:02:25;8.50;99.90
21167;DHT22;10741;52.272;9.580;2024-03-07T14:07:51;9.00;99.90
21167;DHT22;10741;52.272;9.580;2024-03-07T14:13:59;10.40;99.90
21167;DHT22;10741;52.272;9.580;2024-03-07T14:28:31;10.70;99.90
21167;DHT22;10741;52.272;9.580;2024-03-07T14:31:02;11.60;99.90
21167;DHT22;10741;52.272;9.580;2024-03-07T14:36:19;11.40;99.90
21167;DHT22;10741;52.272;9.580;2024-03-07T14:38:50;10.80;99.90
21167;DHT22;10741;52.272;9.580;2024-03-07T14:41:17;9.80;99.90
21167;DHT22;10741;52.272;9.580;2024-03-07T14:43:44;9.50;99.90
21167;DHT22;10741;52.272;9.580;2024-03-07T14:46:11;9.50;99.90
21167;DHT22;10741;52.272;9.580;2024-03-07T14:48:39;9.60;99.90
21167;DHT22;10741;52.272;9.580;2024-03-07T14:51:07;9.20;99.90
21167;DHT22;10741;52.272;9.580;2024-03-07T14:53:33;9.00;99.90
21167;DHT22;10741;52.272;9.580;2024-03-07T14:55:59;8.70;99.90
21167;DHT22;10741;52.272;9.580;2024-03-07T14:58:25;8.40;99.90
21167;DHT22;10741;52.272;9.580;2024-03-07T15:00:52;8.30;99.90
21167;DHT22;10741;52.272;9.580;2024-03-07T15:03:19;8.00;99.90
21167;DHT22;10741;52.272;9.580;2024-03-07T15:05:45;7.80;99.90
21167;DHT22;10741;52.272;9.580;2024-03-07T15:08:12;7.80;99.90
21167;DHT22;10741;52.272;9.580;2024-03-07T15:10:43;8.00;99.90
21167;DHT22;10741;52.272;9.580;2024-03-07T15:13:12;8.80;99.90
21167;DHT22;10741;52.272;9.580;2024-03-07T15:15:38;9.60;99.90
21167;DHT22;10741;52.272;9.580;2024-03-07T15:18:05;10.10;99.90
21167;DHT22;10741;52.272;9.580;2024-03-07T15:20:31;10.40;99.90
21167;DHT22;10741;52.272;9.580;2024-03-07T15:22:58;10.10;99.90
21167;DHT22;10741;52.272;9.580;2024-03-07T15:25:25;9.60;99.90
21167;DHT22;10741;52.272;9.580;2024-03-07T15:27:56;9.00;99.90
21167;DHT22;10741;52.272;9.580;2024-03-07T15:30:22;8.70;99.90
21167;DHT22;10741;52.272;9.580;2024-03-07T15:32:51;8.40;99.90
21167;DHT22;10741;52.272;9.580;2024-03-07T15:35:17;8.50;99.90
21167;DHT22;10741;52.272;9.580;2024-03-07T15:37:48;8.10;99.90
21167;DHT22;10741;52.272;9.580;2024-03-07T15:40:15;8.00;99.90
21167;DHT22;10741;52.272;9.580;2024-03-07T15:42:42;7.90;99.90
21167;DHT22;10741;52.272;9.580;2024-03-07T15:45:12;7.90;99.90
21167;DHT22;10741;52.272;9.580;2024-03-07T15:47:46;7.80;99.90
21167;DHT22;10741;52.272;9.580;2024-03-07T15:50:13;7.80;99.90
21167;DHT22;10741;52.272;9.580;2024-03-07T15:52:40;7.80;99.90
21167;DHT22;10741;52.272;9.580;2024-03-07T15:55:08;7.80;99.90
21167;DHT22;10741;52.272;9.580;2024-03-07T15:57:48;7.70;99.90
21167;DHT22;10741;52.272;9.580;2024-03-07T16:00:19;7.70;99.90
21167;DHT22;10741;52.272;9.580;2024-03-07T16:03:09;7.60;99.90
21167;DHT22;10741;52.272;9.580;2024-03-07T16:05:36;7.50;99.90
21167;DHT22;10741;52.272;9.580;2024-03-07T16:08:06;7.50;99.90
21167;DHT22;10741;52.272;9.580;2024-03-07T16:10:35;7.40;99.90
21167;DHT22;10741;52.272;9.580;2024-03-07T16:13:03;7.40;99.90
21167;DHT22;10741;52.272;9.580;2024-03-07T16:15:35;7.30;99.90
21167;DHT22;10741;52.272;9.580;2024-03-07T16:18:02;7.30;99.90
21167;DHT22;10741;52.272;9.580;2024-03-07T16:20:32;7.20;99.90
21167;DHT22;10741;52.272;9.580;2024-03-07T16:23:00;7.20;99.90